createdAt,value
2022-08-20T04:33:09.507Z,15.70
2022-08-20T04:35:36.484Z,15.70
2022-08-20T04:38:08.806Z,15.70
2022-08-20T04:40:57.912Z,15.70
2022-08-20T04:43:29.650Z,15.70
2022-08-20T04:45:58.240Z,15.70
2022-08-20T04:48:27.659Z,15.70
2022-08-20T04:50:56.388Z,15.80
2022-08-20T04:53:28.028Z,15.70
2022-08-20T04:55:58.156Z,15.80
2022-08-20T04:58:28.236Z,15.80
2022-08-20T05:01:01.229Z,15.90
2022-08-20T05:03:29.644Z,15.90
2022-08-20T05:05:57.055Z,16.00
2022-08-20T05:08:26.006Z,16.00
2022-08-20T05:10:58.106Z,15.90
2022-08-20T05:13:33.586Z,16.00
2022-08-20T05:16:04.888Z,16.00
2022-08-20T05:18:35.515Z,16.10
2022-08-20T05:21:11.485Z,16.20
2022-08-20T05:23:42.858Z,16.20
2022-08-20T05:26:13.137Z,16.20
2022-08-20T05:28:54.025Z,16.30
2022-08-20T05:31:32.488Z,16.40
2022-08-20T05:34:10.770Z,16.40
2022-08-20T05:36:50.043Z,16.50
2022-08-20T05:39:18.752Z,16.50
2022-08-20T05:41:46.207Z,16.60
2022-08-20T05:44:16.025Z,16.70
2022-08-20T05:46:45.527Z,16.80
2022-08-20T05:49:19.536Z,16.90
2022-08-20T05:51:47.163Z,16.90
2022-08-20T05:54:14.988Z,17.00
2022-08-20T05:56:42.562Z,17.00
2022-08-20T05:59:10.825Z,17.10
2022-08-20T06:01:39.033Z,17.20
2022-08-20T06:04:26.747Z,17.30
2022-08-20T06:06:56.700Z,17.40
2022-08-20T06:09:31.360Z,17.60
2022-08-20T06:12:06.258Z,17.70
2022-08-20T06:14:33.820Z,17.70
2022-08-20T06:17:09.665Z,17.60
2022-08-20T06:19:37.871Z,17.70
2022-08-20T06:22:18.423Z,17.70
2022-08-20T06:24:48.176Z,17.90
2022-08-20T06:27:16.575Z,18.10
2022-08-20T06:29:43.823Z,18.30
2022-08-20T06:32:10.897Z,18.30
2022-08-20T06:34:37.685Z,18.40
2022-08-20T06:37:21.110Z,18.60
2022-08-20T06:39:47.940Z,18.70
2022-08-20T06:42:14.804Z,18.80
2022-08-20T06:44:50.307Z,18.80
2022-08-20T06:47:18.772Z,18.80
2022-08-20T06:49:46.380Z,18.80
2022-08-20T06:52:15.823Z,18.80
2022-08-20T06:54:45.119Z,18.80
2022-08-20T06:57:12.787Z,18.80
2022-08-20T06:59:39.708Z,18.80
2022-08-20T07:02:06.951Z,18.80
2022-08-20T07:04:34.179Z,18.70
2022-08-20T07:07:01.126Z,18.80
2022-08-20T07:09:28.308Z,18.80
2022-08-20T07:11:55.108Z,18.70
2022-08-20T07:14:22.251Z,18.70
2022-08-20T07:16:49.605Z,18.80
2022-08-20T07:19:16.677Z,18.80
2022-08-20T07:21:43.577Z,18.90
2022-08-20T07:24:10.534Z,18.90
2022-08-20T07:26:37.417Z,19.10
2022-08-20T07:29:04.222Z,19.20
2022-08-20T07:31:49.604Z,19.30
2022-08-20T07:34:16.894Z,19.40
2022-08-20T07:36:48.367Z,19.50
2022-08-20T07:39:15.302Z,19.70
2022-08-20T07:41:43.977Z,19.90
2022-08-20T07:44:30.830Z,20.10
2022-08-20T07:47:01.376Z,20.40
2022-08-20T07:49:30.013Z,20.80
2022-08-20T07:51:56.785Z,20.80
2022-08-20T07:54:24.359Z,20.60
2022-08-20T07:56:51.167Z,20.70
2022-08-20T07:59:18.036Z,21.00
2022-08-20T08:01:44.867Z,21.00
2022-08-20T08:04:11.748Z,20.70
2022-08-20T08:06:38.576Z,20.20
2022-08-20T08:09:14.132Z,20.00
2022-08-20T08:11:47.854Z,19.90
2022-08-20T08:14:24.800Z,19.90
2022-08-20T08:16:54.233Z,20.10
2022-08-20T08:19:21.630Z,20.10
2022-08-20T08:21:49.487Z,20.30
2022-08-20T08:24:21.062Z,20.80
2022-08-20T08:26:52.488Z,21.30
2022-08-20T08:29:19.306Z,21.50
2022-08-20T08:31:46.416Z,21.40
2022-08-20T08:34:13.408Z,21.50
2022-08-20T08:36:40.724Z,21.20
2022-08-20T08:39:07.648Z,21.40
2022-08-20T08:41:39.930Z,21.60
2022-08-20T08:44:13.759Z,22.00
2022-08-20T08:46:45.911Z,22.30
2022-08-20T08:49:15.944Z,22.40
2022-08-20T08:51:48.010Z,22.70
2022-08-20T08:54:20.482Z,22.80
2022-08-20T08:56:50.007Z,23.50
2022-08-20T08:59:18.648Z,24.60
2022-08-20T09:01:54.879Z,25.70
2022-08-20T09:04:43.136Z,26.60
2022-08-20T09:07:15.777Z,25.80
2022-08-20T09:09:46.383Z,25.40
2022-08-20T09:12:19.133Z,25.60
2022-08-20T09:14:48.307Z,25.80
2022-08-20T09:17:16.920Z,25.60
2022-08-20T09:19:44.251Z,25.70
2022-08-20T09:22:13.949Z,25.60
2022-08-20T09:24:41.828Z,25.70
2022-08-20T09:27:09.256Z,25.90
2022-08-20T09:29:36.835Z,25.60
2022-08-20T09:32:13.384Z,25.30
2022-08-20T09:34:46.172Z,24.80
2022-08-20T09:37:14.595Z,24.30
2022-08-20T09:39:43.247Z,24.30
2022-08-20T09:42:19.357Z,23.80
2022-08-20T09:44:46.636Z,23.00
2022-08-20T09:47:14.079Z,22.70
2022-08-20T09:49:41.100Z,22.30
2022-08-20T09:52:12.878Z,22.00
2022-08-20T09:54:46.318Z,21.70
2022-08-20T09:57:15.213Z,21.60
2022-08-20T09:59:42.322Z,21.50
2022-08-20T10:02:09.186Z,21.20
2022-08-20T10:04:35.976Z,20.80
2022-08-20T10:07:07.472Z,20.50
2022-08-20T10:09:36.047Z,20.50
2022-08-20T10:12:03.559Z,20.40
2022-08-20T10:14:31.107Z,20.30
2022-08-20T10:16:59.904Z,20.20
2022-08-20T10:19:28.344Z,20.30
2022-08-20T10:21:55.219Z,20.20
2022-08-20T10:24:22.756Z,20.30
2022-08-20T10:26:49.709Z,20.40
2022-08-20T10:29:17.267Z,20.50
2022-08-20T10:31:44.447Z,20.80
2022-08-20T10:34:11.221Z,21.40
2022-08-20T10:36:38.222Z,22.20
2022-08-20T10:39:05.246Z,22.90
2022-08-20T10:41:32.043Z,23.90
2022-08-20T10:46:34.513Z,25.60
2022-08-20T10:49:01.366Z,27.10
2022-08-20T10:51:32.371Z,27.80
2022-08-20T10:53:59.893Z,27.70
2022-08-20T10:56:26.688Z,27.40
2022-08-20T10:58:53.587Z,27.40
2022-08-20T11:01:31.494Z,26.80
2022-08-20T11:04:00.073Z,26.20
2022-08-20T11:06:26.937Z,25.30
2022-08-20T11:08:53.751Z,24.60
2022-08-20T11:11:24.082Z,23.90
2022-08-20T11:13:50.969Z,23.40
2022-08-20T11:16:17.773Z,23.10
2022-08-20T11:18:47.701Z,23.00
2022-08-20T11:21:15.129Z,23.10
2022-08-20T11:23:41.921Z,23.20
2022-08-20T11:26:08.964Z,23.50
2022-08-20T11:28:35.723Z,23.80
2022-08-20T11:31:02.816Z,23.40
2022-08-20T11:33:29.648Z,23.20
2022-08-20T11:35:56.580Z,22.80
2022-08-20T11:38:23.391Z,22.70
2022-08-20T11:40:50.261Z,22.60
2022-08-20T11:43:17.930Z,22.50
2022-08-20T11:45:50.732Z,22.40
2022-08-20T11:48:18.142Z,22.30
2022-08-20T11:50:45.744Z,22.40
2022-08-20T11:53:12.846Z,22.40
2022-08-20T11:55:41.797Z,22.50
2022-08-20T11:58:10.044Z,22.50
2022-08-20T12:00:37.154Z,22.30
2022-08-20T12:03:08.665Z,22.50
2022-08-20T12:05:37.621Z,22.40
2022-08-20T12:08:05.160Z,22.30
2022-08-20T12:10:32.243Z,22.40
2022-08-20T12:12:59.209Z,22.70
2022-08-20T12:15:27.599Z,23.10
2022-08-20T12:17:55.058Z,23.30
2022-08-20T12:20:23.270Z,23.50
2022-08-20T12:22:50.317Z,23.70
2022-08-20T12:25:17.229Z,24.10
2022-08-20T12:27:44.006Z,24.50
2022-08-20T12:30:20.622Z,24.90
2022-08-20T12:32:47.904Z,25.40
2022-08-20T12:35:16.766Z,25.80
2022-08-20T12:37:44.598Z,25.90
2022-08-20T12:40:15.166Z,25.90
2022-08-20T12:42:42.673Z,25.70
2022-08-20T12:45:10.594Z,25.50
2022-08-20T12:47:40.602Z,25.40
2022-08-20T12:50:12.445Z,25.10
2022-08-20T12:52:39.359Z,24.90
2022-08-20T12:55:07.628Z,24.60
2022-08-20T12:57:44.317Z,24.10
2022-08-20T13:00:27.860Z,23.60
2022-08-20T13:02:58.333Z,23.30
2022-08-20T13:05:25.975Z,23.00
2022-08-20T13:07:53.294Z,22.50
2022-08-20T13:10:26.839Z,22.30
2022-08-20T13:12:53.635Z,22.20
2022-08-20T13:15:21.426Z,22.10
2022-08-20T13:17:56.063Z,21.90
2022-08-20T13:20:25.743Z,21.60
2022-08-20T13:23:00.783Z,21.50
2022-08-20T13:25:27.686Z,21.50
2022-08-20T13:27:59.868Z,21.50
2022-08-20T13:30:27.452Z,21.60
2022-08-20T13:32:54.245Z,21.50
2022-08-20T13:35:21.552Z,21.50
2022-08-20T13:37:49.327Z,21.50
2022-08-20T13:40:17.331Z,21.50
2022-08-20T13:42:44.213Z,21.60
2022-08-20T13:45:11.087Z,21.60
2022-08-20T13:47:39.719Z,21.60
2022-08-20T13:50:10.309Z,21.50
2022-08-20T13:52:38.016Z,21.60
2022-08-20T13:55:07.123Z,21.70
2022-08-20T13:57:34.269Z,21.60
2022-08-20T14:00:01.595Z,21.60
2022-08-20T14:02:28.556Z,21.50
2022-08-20T14:04:55.452Z,21.50
2022-08-20T14:07:32.186Z,21.50
2022-08-20T14:10:04.659Z,21.50
2022-08-20T14:12:31.427Z,21.60
2022-08-20T14:14:58.518Z,21.80
2022-08-20T14:17:31.580Z,22.00
2022-08-20T14:20:05.287Z,22.30
2022-08-20T14:22:33.725Z,22.60
2022-08-20T14:25:03.547Z,22.90
2022-08-20T14:27:32.679Z,23.10
2022-08-20T14:30:00.261Z,23.30
2022-08-20T14:32:27.697Z,23.50
2022-08-20T14:34:56.603Z,23.60
2022-08-20T14:37:29.593Z,23.60
2022-08-20T14:39:58.719Z,23.50
2022-08-20T14:42:28.292Z,23.30
2022-08-20T14:44:56.410Z,23.40
2022-08-20T14:47:26.326Z,23.40
2022-08-20T14:49:55.850Z,23.50
2022-08-20T14:52:24.221Z,23.40
2022-08-20T14:54:55.547Z,22.90
2022-08-20T14:57:23.055Z,22.90
2022-08-20T14:59:53.444Z,23.10
2022-08-20T15:02:20.275Z,23.20
2022-08-20T15:04:51.647Z,23.10
2022-08-20T15:07:27.609Z,23.10
2022-08-20T15:09:55.385Z,23.10
2022-08-20T15:12:23.513Z,22.70
2022-08-20T15:14:51.018Z,22.30
2022-08-20T15:17:20.390Z,22.20
2022-08-20T15:19:47.578Z,22.20
2022-08-20T15:22:14.879Z,22.10
2022-08-20T15:24:41.782Z,22.10
2022-08-20T15:27:22.847Z,22.10
2022-08-20T15:29:51.319Z,22.10
2022-08-20T15:32:18.657Z,22.00
2022-08-20T15:34:47.090Z,22.00
2022-08-20T15:37:20.999Z,21.90
2022-08-20T15:39:48.616Z,21.90
2022-08-20T15:42:16.088Z,21.90
2022-08-20T15:44:43.565Z,21.90
2022-08-20T15:47:16.531Z,21.90
2022-08-20T15:49:44.928Z,21.90
2022-08-20T15:52:13.026Z,21.90
2022-08-20T15:54:40.568Z,21.80
2022-08-20T15:57:45.111Z,21.80
2022-08-20T16:00:21.672Z,21.80
2022-08-20T16:03:10.043Z,21.90
2022-08-20T16:06:34.600Z,22.20
2022-08-20T16:09:34.812Z,22.60
2022-08-20T16:12:16.904Z,22.90
2022-08-20T16:14:47.534Z,23.10
2022-08-20T16:17:24.191Z,23.20
2022-08-20T16:20:21.550Z,23.20
2022-08-20T16:22:48.692Z,23.20
2022-08-20T16:25:16.670Z,23.30
2022-08-20T16:27:53.137Z,23.50
2022-08-20T16:30:25.442Z,23.50
2022-08-20T16:33:01.421Z,23.60
2022-08-20T16:35:56.883Z,23.80
2022-08-20T16:38:34.703Z,23.70
2022-08-20T16:41:42.460Z,23.90
2022-08-20T16:44:20.729Z,24.00
2022-08-20T16:46:58.938Z,24.20
2022-08-20T16:49:29.726Z,24.00
2022-08-20T16:51:56.994Z,23.70
2022-08-20T16:54:29.508Z,23.50
2022-08-20T16:57:01.745Z,23.50
2022-08-20T16:59:28.860Z,23.60
2022-08-20T17:02:01.813Z,23.60
2022-08-20T17:04:33.605Z,23.60
2022-08-20T17:07:02.902Z,23.60
2022-08-20T17:09:43.538Z,23.50
2022-08-20T17:12:25.246Z,23.50
2022-08-20T17:14:58.337Z,23.50
2022-08-20T17:17:26.858Z,23.20
2022-08-20T17:19:56.702Z,23.30
2022-08-20T17:22:26.440Z,23.40
2022-08-20T17:24:53.593Z,23.30
2022-08-20T17:27:32.511Z,23.00
2022-08-20T17:30:20.964Z,22.70
2022-08-20T17:32:57.898Z,22.40
2022-08-20T17:35:33.404Z,22.10
2022-08-20T17:38:02.256Z,21.80
2022-08-20T17:40:45.989Z,21.50
2022-08-20T17:43:28.695Z,21.30
2022-08-20T17:45:57.968Z,21.20
2022-08-20T17:48:29.567Z,21.10
2022-08-20T17:50:57.761Z,21.00
2022-08-20T17:53:28.420Z,20.90
2022-08-20T17:56:01.280Z,20.90
2022-08-20T17:58:54.650Z,20.80
2022-08-20T18:01:23.877Z,20.80
2022-08-20T18:03:52.972Z,20.80
2022-08-20T18:06:43.976Z,20.70
2022-08-20T18:09:25.128Z,20.60
2022-08-20T18:12:24.203Z,20.50
2022-08-20T18:15:44.112Z,20.40
2022-08-20T18:18:25.774Z,20.30
2022-08-20T18:21:20.330Z,20.20
2022-08-20T18:24:01.285Z,20.20
2022-08-20T18:26:34.238Z,20.20
2022-08-20T18:29:13.330Z,20.20
2022-08-20T18:31:47.147Z,20.20
2022-08-20T18:34:39.594Z,20.20
2022-08-20T18:37:25.451Z,20.20
2022-08-20T18:40:18.524Z,20.20
2022-08-20T18:42:45.883Z,20.20
2022-08-20T18:45:12.792Z,20.20
2022-08-20T18:47:48.616Z,20.10
2022-08-20T18:50:39.451Z,20.20
2022-08-20T18:53:31.728Z,20.20
2022-08-20T18:56:04.747Z,20.20
2022-08-20T18:58:54.055Z,20.00
2022-08-20T19:01:21.353Z,20.00
2022-08-20T19:03:52.204Z,19.90
2022-08-20T19:06:30.521Z,19.90
2022-08-20T19:09:09.921Z,20.00
2022-08-20T19:12:14.816Z,19.70
2022-08-20T19:15:00.684Z,19.70
2022-08-20T19:17:54.076Z,19.70
2022-08-20T19:20:23.659Z,19.70
2022-08-20T19:22:52.232Z,19.70
2022-08-20T19:25:33.237Z,19.60
2022-08-20T19:28:04.251Z,19.60
2022-08-20T19:30:38.837Z,19.50
2022-08-20T19:33:06.701Z,19.50
2022-08-20T19:35:34.782Z,19.40
2022-08-20T19:38:02.401Z,19.30
2022-08-20T19:40:33.236Z,19.30
2022-08-20T19:43:11.035Z,19.10
2022-08-20T19:45:43.956Z,19.10
2022-08-20T19:48:38.528Z,19.00
2022-08-20T19:51:22.044Z,19.00
2022-08-20T19:53:53.556Z,18.90
2022-08-20T19:56:32.253Z,18.70
2022-08-20T19:59:11.193Z,18.70
2022-08-20T20:01:39.516Z,18.80
2022-08-20T20:04:14.611Z,18.70
2022-08-20T20:06:51.026Z,18.70
2022-08-20T20:09:30.856Z,18.70
2022-08-20T20:12:09.986Z,18.70
2022-08-20T20:14:56.460Z,18.80
2022-08-20T20:17:32.376Z,18.80
2022-08-20T20:20:16.889Z,18.80
2022-08-20T20:23:07.017Z,18.80
2022-08-20T20:25:36.804Z,18.80
2022-08-20T20:28:25.084Z,18.80
2022-08-20T20:30:53.469Z,18.70
2022-08-20T20:33:31.948Z,18.60
2022-08-20T20:36:11.454Z,18.50
2022-08-20T20:38:52.895Z,18.50
2022-08-20T20:41:23.401Z,18.40
2022-08-20T20:44:04.534Z,18.40
2022-08-20T20:46:34.987Z,18.40
2022-08-20T20:49:26.074Z,18.40
2022-08-20T20:52:01.217Z,18.50
2022-08-20T20:54:44.214Z,18.40
2022-08-20T20:57:23.900Z,18.50
2022-08-20T21:00:13.713Z,18.40
2022-08-20T21:02:41.093Z,18.30
2022-08-20T21:05:08.528Z,18.30
2022-08-20T21:07:44.166Z,18.30
2022-08-20T21:10:11.260Z,18.20
2022-08-20T21:12:40.072Z,18.20
2022-08-20T21:15:07.465Z,18.20
2022-08-20T21:17:34.336Z,18.20
2022-08-20T21:20:01.929Z,18.00
2022-08-20T21:22:28.866Z,17.90
2022-08-20T21:24:55.733Z,17.80
2022-08-20T21:27:25.148Z,17.60
2022-08-20T21:29:52.820Z,17.60
2022-08-20T21:32:19.616Z,17.50
2022-08-20T21:34:46.949Z,17.50
2022-08-20T21:37:14.290Z,17.60
2022-08-20T21:39:41.932Z,17.60
2022-08-20T21:42:28.310Z,17.60
2022-08-20T21:44:56.904Z,17.70
2022-08-20T21:47:26.245Z,17.70
2022-08-20T21:49:54.667Z,17.70
2022-08-20T21:52:21.777Z,17.60
2022-08-20T21:54:48.980Z,17.60
2022-08-20T21:57:23.453Z,17.60
2022-08-20T21:59:50.560Z,17.60
2022-08-20T22:02:25.264Z,17.70
2022-08-20T22:04:53.989Z,17.70
2022-08-20T22:07:21.765Z,17.70
2022-08-20T22:09:48.647Z,17.70
2022-08-20T22:12:23.400Z,17.60
2022-08-20T22:14:50.833Z,17.50
2022-08-20T22:17:17.696Z,17.30
2022-08-20T22:19:44.772Z,17.30
2022-08-20T22:22:13.304Z,17.30
2022-08-20T22:24:40.152Z,17.30
2022-08-20T22:27:08.260Z,17.30
2022-08-20T22:29:35.121Z,17.30
2022-08-20T22:32:02.508Z,17.40
2022-08-20T22:34:34.443Z,17.40
2022-08-20T22:37:02.456Z,17.40
2022-08-20T22:39:29.488Z,17.40
2022-08-20T22:41:56.776Z,17.40
2022-08-20T22:44:23.569Z,17.40
2022-08-20T22:46:55.696Z,17.40
2022-08-20T22:49:26.938Z,17.40
2022-08-20T22:51:56.923Z,17.30
2022-08-20T22:54:24.824Z,17.20
2022-08-20T22:56:53.290Z,17.20
2022-08-20T22:59:21.081Z,17.20
2022-08-20T23:01:52.647Z,17.20
2022-08-20T23:04:26.980Z,17.10
2022-08-20T23:06:54.272Z,17.10
2022-08-20T23:09:21.719Z,17.00
2022-08-20T23:11:49.851Z,16.90
2022-08-20T23:14:16.926Z,16.90
2022-08-20T23:16:46.265Z,16.80
2022-08-20T23:19:18.468Z,16.80
2022-08-20T23:21:45.953Z,16.70
2022-08-20T23:24:14.103Z,16.70
2022-08-20T23:26:41.805Z,16.70
2022-08-20T23:29:22.426Z,16.50
